Time;durP1;ratioP1;P1;durP2;ratioP2;P2;SDS_P1;SDS_P2;PMS_P1;PMS_P2;Temp;Humidity;BMP_temperature;BMP_pressure;BME280_temperature;BME280_humidity;BME280_pressure;Samples;Min_cycle;Max_cycle;Signal;HPM_P1;HPM_P2
2022/10/06 03:58:38;;;;;;;16.20;9.70;;;;;;;10.56;83.58;101681.19;5606779;31;79279;-55
2022/10/06 04:01:44;;;;;;;15.68;9.68;;;;;;;10.51;82.56;101678.44;5584036;31;33133;-55
2022/10/06 04:04:47;;;;;;;16.33;8.83;;;;;;;10.46;82.61;101678.38;5583908;31;33144;-55
2022/10/06 04:07:49;;;;;;;12.93;9.20;;;;;;;10.63;82.16;101682.88;5583886;31;33679;-55
2022/10/06 04:10:51;;;;;;;12.93;9.02;;;;;;;10.54;81.81;101686.00;5583771;31;34023;-55
2022/10/06 04:13:57;;;;;;;13.30;8.32;;;;;;;10.54;81.72;101686.00;5583908;32;33626;-56
2022/10/06 04:17:00;;;;;;;13.00;8.88;;;;;;;10.46;82.24;101689.09;5583980;31;34138;-55
2022/10/06 04:20:03;;;;;;;19.35;9.43;;;;;;;10.63;81.34;101690.91;5583631;31;32998;-55
2022/10/06 04:23:06;;;;;;;13.98;9.48;;;;;;;10.57;81.39;101690.06;5583776;32;33968;-55
2022/10/06 04:26:17;;;;;;;14.77;9.50;;;;;;;10.50;81.45;101690.22;5583687;31;33311;-55
2022/10/06 04:29:20;;;;;;;12.60;8.18;;;;;;;10.60;80.77;101692.25;5566838;31;33594;-55
2022/10/06 04:32:22;;;;;;;12.63;8.40;;;;;;;10.56;80.86;101696.44;5564178;32;33872;-55
2022/10/06 04:35:26;;;;;;;12.63;8.27;;;;;;;10.43;81.39;101694.97;5564133;32;33600;-55
2022/10/06 04:38:31;;;;;;;12.52;9.10;;;;;;;10.46;81.15;101696.31;5563891;32;33228;-55
2022/10/06 04:41:36;;;;;;;12.98;8.60;;;;;;;10.44;81.20;101703.81;5564104;32;33403;-55
2022/10/06 04:44:38;;;;;;;15.50;8.85;;;;;;;10.33;80.83;101694.78;5563893;32;34425;-56
2022/10/06 04:47:41;;;;;;;14.60;8.98;;;;;;;10.34;80.81;101694.56;5578804;32;34088;-55
2022/10/06 04:50:52;;;;;;;14.82;9.25;;;;;;;10.41;80.57;101691.69;5583202;31;34853;-56
2022/10/06 04:53:55;;;;;;;16.85;9.43;;;;;;;10.35;81.29;101690.81;5580878;31;33312;-55
2022/10/06 04:56:57;;;;;;;15.40;9.52;;;;;;;10.46;80.38;101691.78;5581908;31;33359;-56
2022/10/06 05:03:21;;;;;;;17.98;9.18;;;;;;;10.36;80.94;101686.25;5581535;32;34222;-55
2022/10/06 05:06:28;;;;;;;17.60;9.50;;;;;;;10.35;81.17;101690.00;5580206;32;33279;-55
2022/10/06 05:09:31;;;;;;;14.52;10.73;;;;;;;10.31;82.06;101694.25;5570970;31;33836;-55
2022/10/06 05:12:34;;;;;;;18.65;10.88;;;;;;;10.27;81.49;101703.84;5567247;31;33357;-55
2022/10/06 05:15:38;;;;;;;17.52;11.40;;;;;;;10.40;81.26;101700.81;5567701;32;34210;-55
2022/10/06 05:18:41;;;;;;;18.65;11.30;;;;;;;10.42;81.86;101692.50;5568569;31;33968;-55
2022/10/06 05:21:43;;;;;;;20.02;11.07;;;;;;;10.40;81.29;101691.94;5565812;31;33347;-55
2022/10/06 05:24:46;;;;;;;14.90;10.10;;;;;;;10.52;81.02;101695.34;5567716;31;33236;-54
2022/10/06 05:27:48;;;;;;;18.70;11.98;;;;;;;10.50;81.65;101698.28;5568187;32;33617;-55
2022/10/06 05:31:03;;;;;;;24.63;11.50;;;;;;;10.54;81.35;101704.75;5566357;32;33840;-56
2022/10/06 05:34:06;;;;;;;26.65;11.45;;;;;;;10.57;81.85;101709.62;5557924;32;33570;-56
2022/10/06 05:37:08;;;;;;;18.80;10.27;;;;;;;10.62;81.92;101706.19;5566466;32;33345;-55
2022/10/06 05:40:11;;;;;;;36.92;14.43;;;;;;;10.69;82.57;101698.78;5567948;32;33230;-55
2022/10/06 05:43:14;;;;;;;32.25;11.25;;;;;;;10.76;82.16;101707.47;5567493;32;33441;-56
2022/10/06 05:46:19;;;;;;;17.95;11.90;;;;;;;10.85;82.35;101710.50;5568459;32;33849;-55
2022/10/06 05:49:23;;;;;;;26.92;11.90;;;;;;;10.91;81.97;101704.16;5552137;32;34238;-55
2022/10/06 05:52:25;;;;;;;22.17;12.32;;;;;;;11.01;82.24;101706.16;5568512;31;33127;-55
2022/10/06 05:55:27;;;;;;;28.55;15.73;;;;;;;11.12;82.79;101701.72;5566943;32;33345;-54
2022/10/06 05:58:31;;;;;;;30.08;14.10;;;;;;;11.23;82.13;101715.00;5565994;31;33084;-55
2022/10/06 06:01:40;;;;;;;31.45;13.88;;;;;;;11.30;82.87;101720.19;5568771;32;33605;-55
2022/10/06 06:04:44;;;;;;;39.25;13.38;;;;;;;11.32;83.15;101714.53;5568374;31;33487;-54
2022/10/06 06:07:47;;;;;;;22.02;12.63;;;;;;;11.39;83.30;101721.34;5567649;32;35009;-55
2022/10/06 06:10:49;;;;;;;19.40;11.15;;;;;;;11.56;82.11;101723.12;5568419;32;33117;-55
2022/10/06 06:13:56;;;;;;;24.05;11.80;;;;;;;11.56;81.83;101723.12;5568498;32;33666;-54
2022/10/06 06:16:59;;;;;;;65.37;15.55;;;;;;;11.58;81.94;101724.47;5568092;32;34288;-55
2022/10/06 06:20:02;;;;;;;20.00;12.45;;;;;;;11.53;83.34;101730.62;5568340;32;33692;-55
2022/10/06 06:23:05;;;;;;;18.20;12.40;;;;;;;11.59;82.77;101734.19;5568311;32;33309;-55
2022/10/06 06:26:10;;;;;;;20.33;11.88;;;;;;;11.60;83.05;101738.47;5566542;31;33277;-55
2022/10/06 06:29:13;;;;;;;20.60;11.65;;;;;;;11.72;82.65;101738.31;5567682;32;33236;-55
2022/10/06 06:32:17;;;;;;;24.77;12.35;;;;;;;11.74;82.60;101747.75;5567516;31;32141;-54
2022/10/06 06:35:19;;;;;;;20.83;12.10;;;;;;;11.73;83.28;101748.00;5566985;32;34181;-56
2022/10/06 06:38:21;;;;;;;17.95;11.32;;;;;;;11.71;83.07;101753.62;5566059;31;34339;-55
2022/10/06 06:41:26;;;;;;;41.33;13.20;;;;;;;11.72;83.05;101763.31;5567590;31;33325;-55
2022/10/06 06:44:29;;;;;;;23.67;12.57;;;;;;;11.73;83.65;101761.44;5568356;31;33512;-55
2022/10/06 06:47:33;;;;;;;25.67;12.77;;;;;;;11.81;83.72;101765.53;5566513;31;33431;-56
2022/10/06 06:50:37;;;;;;;24.80;14.50;;;;;;;11.84;83.55;101770.41;5568827;31;33369;-55
2022/10/06 06:53:39;;;;;;;45.55;12.80;;;;;;;12.00;82.90;101774.88;5568311;32;33592;-55
2022/10/06 06:56:44;;;;;;;25.88;12.70;;;;;;;11.96;83.40;101768.41;5567324;31;33488;-56
2022/10/06 06:59:47;;;;;;;25.35;12.95;;;;;;;12.07;82.86;101772.78;5567480;31;34331;-55
2022/10/06 07:02:59;;;;;;;30.80;14.57;;;;;;;12.05;83.24;101768.72;5567863;31;33243;-55
2022/10/06 07:06:10;;;;;;;29.60;14.45;;;;;;;12.16;82.47;101771.25;5566713;31;33125;-56
2022/10/06 07:09:13;;;;;;;21.27;13.60;;;;;;;12.22;82.67;101775.63;5568978;31;33477;-55
2022/10/06 07:12:16;;;;;;;21.62;15.02;;;;;;;12.44;81.70;101777.38;5562393;31;33256;-55
2022/10/06 07:25:28;;;;;;;28.23;15.57;;;;;;;12.86;80.87;101781.94;5567842;32;33195;-55
2022/10/06 07:28:31;;;;;;;22.98;16.62;;;;;;;12.73;80.42;101783.22;5568009;31;33630;-55
2022/10/06 07:31:35;;;;;;;32.40;17.33;;;;;;;12.83;81.04;101788.66;5565242;31;34022;-56
2022/10/06 07:34:38;;;;;;;31.62;17.83;;;;;;;12.92;79.31;101791.69;5566673;32;35313;-56
2022/10/06 07:37:40;;;;;;;27.40;17.90;;;;;;;12.91;79.91;101795.41;5567665;31;33383;-55
2022/10/06 07:40:43;;;;;;;25.70;17.30;;;;;;;13.03;79.01;101796.03;5567562;32;33780;-55
2022/10/06 07:44:04;;;;;;;29.85;18.02;;;;;;;13.05;78.06;101785.00;5568448;32;34801;-55
2022/10/06 07:47:09;;;;;;;24.58;17.37;;;;;;;13.09;78.18;101791.50;5566687;31;34569;-55
2022/10/06 07:50:13;;;;;;;29.65;17.33;;;;;;;13.16;78.94;101792.84;5567668;32;33582;-55
2022/10/06 07:53:16;;;;;;;23.42;16.83;;;;;;;13.27;78.91;101790.22;5565532;32;33783;-55
2022/10/06 07:56:20;;;;;;;26.62;17.70;;;;;;;13.42;78.46;101795.69;5557268;32;33143;-55
2022/10/06 07:59:22;;;;;;;23.92;17.90;;;;;;;13.54;78.33;101800.81;5562580;31;33329;-56
2022/10/06 08:02:25;;;;;;;36.88;17.00;;;;;;;13.59;77.61;101807.06;5567351;32;32423;-55
2022/10/06 08:05:34;;;;;;;26.58;17.85;;;;;;;13.69;77.88;101806.25;5568314;32;34260;-55
2022/10/06 08:08:36;;;;;;;21.48;17.00;;;;;;;13.78;77.52;101810.06;5566206;31;34229;-53
2022/10/06 08:11:39;;;;;;;28.60;17.17;;;;;;;13.90;77.72;101809.81;5566581;32;34405;-53
2022/10/06 08:14:41;;;;;;;26.87;18.52;;;;;;;14.03;77.32;101808.47;5565458;32;34190;-53
2022/10/06 08:17:44;;;;;;;23.75;17.30;;;;;;;14.08;75.10;101812.00;5567112;32;33901;-53
2022/10/06 08:20:46;;;;;;;25.83;17.15;;;;;;;14.14;73.23;101811.97;5565544;32;33310;-52
2022/10/06 08:23:50;;;;;;;22.73;17.25;;;;;;;14.19;73.88;101812.81;5567532;32;34346;-53
2022/10/06 08:26:52;;;;;;;27.02;17.83;;;;;;;14.34;74.88;101809.31;5565821;32;33128;-53
2022/10/06 08:29:56;;;;;;;26.65;18.55;;;;;;;14.40;75.71;101810.91;5566237;32;33584;-53
2022/10/06 08:32:58;;;;;;;29.35;17.77;;;;;;;14.65;72.93;101809.31;5566501;32;33960;-53
2022/10/06 08:36:15;;;;;;;31.25;17.40;;;;;;;14.69;72.76;101813.06;5564230;32;34286;-53
2022/10/06 08:39:17;;;;;;;24.17;17.23;;;;;;;14.79;73.75;101813.03;5560528;32;34229;-52
2022/10/06 08:42:32;;;;;;;28.92;18.17;;;;;;;14.89;72.64;101804.91;5565027;32;33633;-53
2022/10/06 08:45:41;;;;;;;38.00;18.27;;;;;;;15.09;71.27;101803.25;5566133;32;33855;-53
2022/10/06 08:48:43;;;;;;;26.95;17.33;;;;;;;15.08;71.65;101807.03;5564865;31;33701;-54
2022/10/06 08:51:52;;;;;;;28.42;18.05;;;;;;;15.11;72.34;101812.69;5561320;32;33674;-53
2022/10/06 08:55:25;;;;;;;27.45;17.42;;;;;;;15.06;71.08;101804.59;5568215;32;33698;-52
2022/10/06 08:58:36;;;;;;;28.48;16.67;;;;;;;15.17;70.54;101814.31;5566283;32;34517;-55
2022/10/06 09:01:43;;;;;;;30.23;16.40;;;;;;;15.23;71.28;101813.19;5557716;32;33707;-55
2022/10/06 09:04:48;;;;;;;23.40;16.95;;;;;;;15.39;69.46;101815.81;5563281;32;33549;-54
2022/10/06 09:08:11;;;;;;;26.95;16.42;;;;;;;15.40;68.71;101810.16;5562839;32;33766;-53
2022/10/06 09:11:25;;;;;;;24.55;16.10;;;;;;;15.43;70.18;101808.75;5563187;32;34289;-52
2022/10/06 09:14:37;;;;;;;21.20;15.18;;;;;;;15.41;70.16;101809.06;5559979;32;33178;-54
2022/10/06 09:17:59;;;;;;;23.50;15.55;;;;;;;15.59;68.21;101806.81;5557715;32;33823;-54
2022/10/06 09:21:03;;;;;;;25.10;15.63;;;;;;;15.71;68.16;101813.53;5560244;32;33192;-53
2022/10/06 09:24:17;;;;;;;26.60;15.60;;;;;;;15.75;68.12;101808.34;5557795;32;34371;-53
2022/10/06 09:27:22;;;;;;;16.23;13.88;;;;;;;15.81;68.46;101806.44;5561914;31;33941;-53
2022/10/06 09:30:26;;;;;;;18.90;14.80;;;;;;;15.81;66.77;101809.94;5565099;32;33812;-53
2022/10/06 09:33:37;;;;;;;26.33;15.30;;;;;;;15.87;67.52;101810.72;5568149;32;33503;-52
2022/10/06 09:36:58;;;;;;;21.10;15.07;;;;;;;16.01;67.19;101811.72;5567374;32;34160;-52
2022/10/06 09:40:32;;;;;;;24.12;15.15;;;;;;;16.10;67.80;101811.91;5567585;32;34400;-53
2022/10/06 09:43:34;;;;;;;21.45;14.65;;;;;;;16.29;67.83;101812.84;5565431;32;33363;-53
2022/10/06 09:46:40;;;;;;;28.02;14.40;;;;;;;16.29;68.19;101820.97;5564139;32;33713;-53
2022/10/06 09:49:42;;;;;;;27.60;14.65;;;;;;;16.35;65.72;101810.88;5564467;32;34400;-53
2022/10/06 09:53:02;;;;;;;22.33;14.48;;;;;;;16.36;66.62;101809.81;5568453;32;33615;-53
2022/10/06 09:56:17;;;;;;;17.77;13.98;;;;;;;16.33;66.45;101821.22;5559835;32;33506;-52
2022/10/06 09:59:24;;;;;;;25.15;15.75;;;;;;;16.42;66.37;101816.78;5559452;32;33743;-53
2022/10/06 10:02:38;;;;;;;22.15;14.35;;;;;;;16.56;64.46;101822.38;5559574;32;34288;-53
2022/10/06 10:05:53;;;;;;;21.50;15.07;;;;;;;16.51;65.57;101830.50;5563244;32;33250;-53
2022/10/06 10:09:20;;;;;;;32.43;15.83;;;;;;;16.59;64.71;101821.78;5567347;32;34440;-53
2022/10/06 10:12:28;;;;;;;23.75;14.77;;;;;;;16.65;66.18;101826.03;5566125;32;34337;-53
2022/10/06 10:15:48;;;;;;;23.90;14.50;;;;;;;16.75;63.96;101814.34;5559538;32;33798;-53
2022/10/06 10:18:50;;;;;;;19.67;13.48;;;;;;;16.73;64.89;101809.19;5560387;32;34346;-53
2022/10/06 10:21:56;;;;;;;16.75;12.68;;;;;;;16.78;65.99;101806.44;5560622;31;33729;-55
2022/10/06 10:25:28;;;;;;;18.98;12.93;;;;;;;17.01;65.08;101810.25;5564937;32;34084;-53
2022/10/06 10:28:50;;;;;;;20.37;13.13;;;;;;;17.10;64.31;101802.31;5560932;32;34438;-54
2022/10/06 10:31:59;;;;;;;19.10;13.05;;;;;;;17.02;65.39;101809.19;5563235;32;33772;-53
2022/10/06 10:35:17;;;;;;;16.90;13.32;;;;;;;17.06;66.01;101804.00;5558261;32;33687;-54
2022/10/06 10:38:22;;;;;;;17.62;12.10;;;;;;;17.10;66.11;101794.19;5566162;32;34414;-53
2022/10/06 10:41:29;;;;;;;20.30;11.82;;;;;;;17.19;66.25;101787.03;5556640;32;33746;-53
2022/10/06 10:44:43;;;;;;;16.90;11.63;;;;;;;17.16;66.50;101790.31;5566256;32;33660;-54
2022/10/06 10:47:48;;;;;;;18.83;11.88;;;;;;;17.27;65.62;101794.50;5566129;32;32875;-53
2022/10/06 10:50:57;;;;;;;16.70;11.00;;;;;;;17.28;65.07;101798.00;5561327;32;34319;-53
2022/10/06 10:54:04;;;;;;;18.25;11.43;;;;;;;17.20;66.48;101793.25;5562492;32;33229;-53
2022/10/06 10:57:13;;;;;;;16.77;11.68;;;;;;;17.15;67.04;101794.09;5561909;32;34556;-54
2022/10/06 11:00:24;;;;;;;16.27;12.10;;;;;;;17.18;66.03;101793.53;5559402;32;33731;-53
2022/10/06 11:03:27;;;;;;;16.85;10.80;;;;;;;17.31;64.60;101790.09;5563751;32;33346;-53
2022/10/06 11:06:53;;;;;;;18.92;11.68;;;;;;;17.18;65.41;101796.22;5566108;32;33804;-53
2022/10/06 11:10:12;;;;;;;;;;;;;;;17.16;66.34;101795.75;5564427;32;33314;-53
2022/10/06 11:13:36;;;;;;;15.23;11.48;;;;;;;17.15;67.25;101785.97;5566270;32;34005;-53
2022/10/06 11:17:02;;;;;;;20.65;11.48;;;;;;;17.18;67.41;101790.00;5557354;32;33573;-55
2022/10/06 11:20:22;;;;;;;15.40;10.90;;;;;;;17.22;67.19;101789.16;5563232;32;34286;-53
2022/10/06 11:23:44;;;;;;;18.00;10.85;;;;;;;17.21;67.69;101790.25;5563933;32;34373;-53
2022/10/06 11:27:05;;;;;;;12.80;11.05;;;;;;;17.31;67.54;101784.69;5564859;32;33689;-53
2022/10/06 11:30:14;;;;;;;16.55;11.55;;;;;;;17.33;67.01;101785.22;5565327;32;33633;-53
2022/10/06 11:33:39;;;;;;;18.40;12.35;;;;;;;17.33;67.10;101784.41;5567231;32;33045;-53
2022/10/06 11:36:52;;;;;;;16.33;11.48;;;;;;;17.44;66.81;101782.34;5547021;31;34479;-53
2022/10/06 11:40:14;;;;;;;17.60;11.43;;;;;;;17.58;65.77;101772.37;5563615;32;33601;-53
2022/10/06 11:43:39;;;;;;;16.27;10.75;;;;;;;17.54;67.08;101780.31;5567223;32;34365;-53
2022/10/06 11:46:51;;;;;;;11.73;9.30;;;;;;;17.62;67.26;101765.31;5553253;32;33668;-53
2022/10/06 11:49:54;;;;;;;13.48;9.07;;;;;;;17.71;67.63;101762.72;5559708;32;33266;-53
2022/10/06 11:52:57;;;;;;;11.40;8.85;;;;;;;17.79;67.07;101768.31;5566206;32;34377;-53
2022/10/06 11:56:18;;;;;;;15.68;8.48;;;;;;;18.06;64.72;101755.97;5567550;32;33711;-53
2022/10/06 11:59:25;;;;;;;14.38;9.13;;;;;;;17.98;66.01;101754.75;5554156;32;33645;-53
2022/10/06 12:02:30;;;;;;;11.10;8.30;;;;;;;18.01;65.67;101751.44;5565777;32;34359;-53
2022/10/06 12:05:33;;;;;;;9.05;8.13;;;;;;;18.12;65.42;101757.50;5566711;32;33970;-53
2022/10/06 12:08:56;;;;;;;14.63;8.27;;;;;;;18.37;63.75;101756.22;5567465;32;33157;-53
2022/10/06 12:12:13;;;;;;;12.40;8.98;;;;;;;18.29;63.90;101759.63;5565318;32;33480;-54
2022/10/06 12:15:36;;;;;;;12.10;8.48;;;;;;;18.43;63.05;101755.03;5566729;32;33963;-53
2022/10/06 12:19:17;;;;;;;12.98;8.85;;;;;;;18.30;64.86;101753.09;5568336;32;33739;-54
2022/10/06 12:22:44;;;;;;;12.90;8.88;;;;;;;18.29;65.45;101754.22;5568677;32;34032;-53
2022/10/06 12:26:03;;;;;;;14.05;9.20;;;;;;;18.26;65.24;101744.75;5545721;31;33469;-53
2022/10/06 12:29:24;;;;;;;15.30;9.15;;;;;;;18.25;65.09;101754.00;5568640;32;33683;-53
2022/10/06 12:32:47;;;;;;;10.30;8.55;;;;;;;18.26;65.19;101743.94;5552575;32;33680;-53
2022/10/06 12:36:00;;;;;;;15.80;8.90;;;;;;;18.30;65.55;101747.66;5550998;32;33771;-53
2022/10/06 12:39:19;;;;;;;12.75;8.25;;;;;;;18.41;63.94;101745.56;5567258;32;33781;-53
2022/10/06 12:42:28;;;;;;;10.43;7.72;;;;;;;18.42;64.98;101750.72;5563951;32;33741;-53
2022/10/06 12:45:31;;;;;;;12.93;8.00;;;;;;;18.44;65.72;101744.97;5570662;32;33834;-54
2022/10/06 12:48:54;;;;;;;15.02;8.07;;;;;;;18.52;65.58;101741.56;5569949;32;33632;-53
2022/10/06 12:52:14;;;;;;;11.27;7.75;;;;;;;18.63;63.52;101729.41;5569739;32;34254;-53
2022/10/06 12:55:39;;;;;;;17.65;7.75;;;;;;;18.55;64.87;101733.62;5569393;32;34244;-53
2022/10/06 12:58:41;;;;;;;15.15;8.57;;;;;;;18.57;65.04;101730.59;5570505;32;33593;-53
2022/10/06 13:01:43;;;;;;;11.77;8.02;;;;;;;18.59;64.73;101731.13;5567956;32;34353;-53
2022/10/06 13:04:53;;;;;;;11.70;6.80;;;;;;;18.63;64.09;101721.25;5569321;32;33748;-53
2022/10/06 13:08:19;;;;;;;9.70;6.80;;;;;;;18.69;64.91;101719.25;5569674;32;34407;-53
2022/10/06 13:11:25;;;;;;;11.05;7.50;;;;;;;18.64;64.81;101724.75;5569700;32;33752;-53
2022/10/06 13:14:27;;;;;;;21.40;7.20;;;;;;;18.64;65.39;101722.88;5570288;32;34480;-53
2022/10/06 13:17:30;;;;;;;17.98;7.68;;;;;;;18.63;65.64;101721.25;5570247;32;33590;-53
2022/10/06 13:20:46;;;;;;;11.23;6.60;;;;;;;18.73;64.40;101723.00;5569726;32;33809;-54
2022/10/06 13:23:49;;;;;;;12.52;7.25;;;;;;;18.70;64.59;101718.94;5563772;32;34419;-53
2022/10/06 13:26:52;;;;;;;11.18;7.47;;;;;;;18.67;64.85;101713.31;5569770;32;34045;-53
2022/10/06 13:30:11;;;;;;;9.75;6.30;;;;;;;18.67;64.84;101716.00;5568930;32;33697;-53
2022/10/06 13:33:13;;;;;;;8.73;6.12;;;;;;;18.68;64.13;101701.34;5566701;32;33660;-53
2022/10/06 13:36:16;;;;;;;13.82;7.70;;;;;;;18.67;65.42;101713.31;5555043;32;33758;-53
2022/10/06 13:39:21;;;;;;;16.42;7.47;;;;;;;18.75;65.50;101707.22;5551553;32;33636;-53
2022/10/06 13:42:24;;;;;;;11.35;7.00;;;;;;;18.79;65.19;101702.78;5567676;32;33681;-53
2022/10/06 13:45:27;;;;;;;23.77;7.70;;;;;;;18.76;64.05;101701.47;5549922;32;34141;-55
2022/10/06 13:48:30;;;;;;;18.50;7.55;;;;;;;18.80;65.18;101709.81;5568432;32;33761;-53
2022/10/06 13:51:32;;;;;;;17.75;7.57;;;;;;;18.80;66.58;101703.56;5568610;32;34333;-53
2022/10/06 13:54:43;;;;;;;16.58;7.37;;;;;;;18.77;66.13;101705.81;5568762;32;34504;-53
2022/10/06 13:57:48;;;;;;;24.52;6.95;;;;;;;18.75;65.14;101704.50;5569623;32;33732;-52
2022/10/06 14:00:54;;;;;;;9.97;6.93;;;;;;;18.70;67.41;101702.62;5568118;32;33684;-53
2022/10/06 14:04:13;;;;;;;16.70;7.32;;;;;;;18.68;66.50;101699.44;5569516;32;34335;-53
2022/10/06 14:07:16;;;;;;;27.50;6.62;;;;;;;18.72;66.48;101708.59;5565688;32;34345;-53
2022/10/06 14:10:51;;;;;;;14.70;6.35;;;;;;;18.72;65.53;101705.91;5567864;32;34277;-53
2022/10/06 14:14:01;;;;;;;14.87;6.70;;;;;;;18.73;65.21;101712.13;5544869;32;32893;-54
2022/10/06 14:17:04;;;;;;;15.15;7.05;;;;;;;18.72;66.70;101714.03;5567530;32;34393;-53
2022/10/06 14:20:31;;;;;;;14.50;6.90;;;;;;;18.70;67.04;101716.22;5565779;32;33898;-52
2022/10/06 14:23:48;;;;;;;11.77;6.35;;;;;;;18.72;66.75;101718.69;5569094;32;34500;-53
2022/10/06 14:26:54;;;;;;;11.75;6.82;;;;;;;18.71;67.43;101717.84;5569528;32;34345;-53
2022/10/06 14:29:56;;;;;;;;;;;;;;;18.65;66.80;101719.06;5569936;32;34920;-53
2022/10/06 14:32:59;;;;;;;12.93;6.32;;;;;;;18.67;66.51;101726.88;5569826;32;34084;-53
2022/10/06 14:36:01;;;;;;;7.90;6.28;;;;;;;18.62;66.52;101716.94;5567523;32;33646;-53
2022/10/06 14:39:05;;;;;;;13.57;6.18;;;;;;;18.64;66.03;101717.44;5568147;32;34383;-53
2022/10/06 14:42:07;;;;;;;11.57;6.68;;;;;;;18.64;67.29;101720.16;5558615;32;33694;-53
2022/10/06 14:45:12;;;;;;;15.52;6.32;;;;;;;18.60;67.37;101726.47;5564819;32;33806;-53
2022/10/06 14:48:14;;;;;;;15.07;6.80;;;;;;;18.57;68.19;101721.66;5551827;32;34337;-53
2022/10/06 14:51:17;;;;;;;13.77;6.30;;;;;;;18.54;68.73;101721.16;5557393;32;34356;-53
2022/10/06 14:54:20;;;;;;;9.30;6.30;;;;;;;18.55;68.85;101730.12;5563152;32;33730;-55
2022/10/06 14:57:22;;;;;;;8.32;6.05;;;;;;;18.49;69.86;101729.41;5564844;32;33872;-53
2022/10/06 15:00:27;;;;;;;13.50;7.45;;;;;;;18.48;70.11;101730.50;5568104;32;34418;-52
2022/10/06 15:03:30;;;;;;;11.63;6.90;;;;;;;18.47;69.82;101734.31;5568656;32;34296;-53
2022/10/06 15:09:54;;;;;;;12.55;6.35;;;;;;;18.43;73.69;101740.66;5567342;32;33297;-53
2022/10/06 15:12:56;;;;;;;14.40;7.03;;;;;;;18.38;70.52;101740.75;5567363;32;33331;-53
2022/10/06 15:15:58;;;;;;;15.38;6.70;;;;;;;18.34;70.81;101735.09;5568344;32;33731;-53
2022/10/06 15:19:04;;;;;;;14.63;6.57;;;;;;;18.33;71.89;101743.56;5569359;32;33751;-53
2022/10/06 15:22:07;;;;;;;10.75;6.75;;;;;;;18.30;72.26;101740.31;5565233;32;33769;-53
2022/10/06 15:28:59;;;;;;;11.27;6.30;;;;;;;18.26;72.90;101742.03;5562128;32;33724;-53
2022/10/06 15:31:54;;;;;;;10.50;5.80;;;;;;;18.20;70.19;101754.06;5568308;32;34388;-53
2022/10/06 15:34:56;;;;;;;8.85;5.47;;;;;;;18.25;69.70;101754.00;5569147;32;33679;-53
2022/10/06 15:37:58;;;;;;;10.63;5.40;;;;;;;18.26;69.35;101760.22;5568874;32;33836;-53
2022/10/06 15:41:03;;;;;;;10.75;5.70;;;;;;;18.33;68.46;101763.34;5569017;32;34511;-53
2022/10/06 15:44:07;;;;;;;13.43;5.70;;;;;;;18.35;69.27;101763.06;5566010;32;33739;-54
